sensor_id;sensor_type;location;lat;lon;timestamp;temperature;humidity
8338;DHT22;4206;48.634;9.516;2022-11-18T06:20:35;6.20;99.90
8338;DHT22;4206;48.634;9.516;2022-11-18T06:25:29;6.20;99.90
8338;DHT22;4206;48.634;9.516;2022-11-18T06:27:56;6.20;99.90
8338;DHT22;4206;48.634;9.516;2022-11-18T06:30:23;6.20;99.90
8338;DHT22;4206;48.634;9.516;2022-11-18T06:32:49;6.20;99.90
8338;DHT22;4206;48.634;9.516;2022-11-18T06:35:14;6.20;99.90
8338;DHT22;4206;48.634;9.516;2022-11-18T06:37:40;6.20;99.90
8338;DHT22;4206;48.634;9.516;2022-11-18T06:40:06;6.20;99.90
8338;DHT22;4206;48.634;9.516;2022-11-18T06:42:32;6.20;99.90
8338;DHT22;4206;48.634;9.516;2022-11-18T06:45:13;6.20;99.90
8338;DHT22;4206;48.634;9.516;2022-11-18T06:47:39;6.40;99.90
8338;DHT22;4206;48.634;9.516;2022-11-18T06:50:05;6.20;99.90
8338;DHT22;4206;48.634;9.516;2022-11-18T06:52:31;6.30;99.90
8338;DHT22;4206;48.634;9.516;2022-11-18T06:54:56;6.30;99.90
8338;DHT22;4206;48.634;9.516;2022-11-18T06:57:22;6.30;99.90
8338;DHT22;4206;48.634;9.516;2022-11-18T06:59:48;6.30;99.90
8338;DHT22;4206;48.634;9.516;2022-11-18T07:02:13;6.40;99.90
8338;DHT22;4206;48.634;9.516;2022-11-18T07:04:39;6.40;99.90
8338;DHT22;4206;48.634;9.516;2022-11-18T07:07:06;6.40;99.90
8338;DHT22;4206;48.634;9.516;2022-11-18T07:09:36;6.40;99.90
8338;DHT22;4206;48.634;9.516;2022-11-18T07:12:03;6.40;99.90
8338;DHT22;4206;48.634;9.516;2022-11-18T07:14:29;6.40;99.90
8338;DHT22;4206;48.634;9.516;2022-11-18T07:16:54;6.50;99.90
8338;DHT22;4206;48.634;9.516;2022-11-18T07:19:20;6.50;99.90
8338;DHT22;4206;48.634;9.516;2022-11-18T07:21:46;6.60;99.90
8338;DHT22;4206;48.634;9.516;2022-11-18T07:24:13;6.50;99.90
8338;DHT22;4206;48.634;9.516;2022-11-18T07:26:40;6.50;99.90
8338;DHT22;4206;48.634;9.516;2022-11-18T07:29:06;6.50;99.90
8338;DHT22;4206;48.634;9.516;2022-11-18T07:31:32;6.60;99.90
8338;DHT22;4206;48.634;9.516;2022-11-18T07:33:59;6.60;99.90
8338;DHT22;4206;48.634;9.516;2022-11-18T07:36:26;6.50;99.90
8338;DHT22;4206;48.634;9.516;2022-11-18T07:38:53;6.70;99.90
8338;DHT22;4206;48.634;9.516;2022-11-18T07:41:21;6.60;99.90
8338;DHT22;4206;48.634;9.516;2022-11-18T07:43:48;6.60;99.90
8338;DHT22;4206;48.634;9.516;2022-11-18T07:48:44;6.60;99.90
8338;DHT22;4206;48.634;9.516;2022-11-18T07:51:13;6.60;99.90
8338;DHT22;4206;48.634;9.516;2022-11-18T07:53:39;6.60;99.90
8338;DHT22;4206;48.634;9.516;2022-11-18T07:56:06;6.60;99.90
8338;DHT22;4206;48.634;9.516;2022-11-18T07:58:32;6.70;99.90
8338;DHT22;4206;48.634;9.516;2022-11-18T08:00:58;6.70;99.90
8338;DHT22;4206;48.634;9.516;2022-11-18T08:03:25;6.60;99.90
8338;DHT22;4206;48.634;9.516;2022-11-18T08:05:51;6.70;99.90
8338;DHT22;4206;48.634;9.516;2022-11-18T08:08:16;6.70;99.90
8338;DHT22;4206;48.634;9.516;2022-11-18T08:10:42;6.70;99.90
8338;DHT22;4206;48.634;9.516;2022-11-18T08:13:08;6.80;99.90
8338;DHT22;4206;48.634;9.516;2022-11-18T08:15:33;6.80;99.90
8338;DHT22;4206;48.634;9.516;2022-11-18T08:17:59;6.80;99.90
8338;DHT22;4206;48.634;9.516;2022-11-18T08:20:24;6.80;99.90
8338;DHT22;4206;48.634;9.516;2022-11-18T08:22:52;6.80;99.90
8338;DHT22;4206;48.634;9.516;2022-11-18T08:25:17;6.80;99.90
8338;DHT22;4206;48.634;9.516;2022-11-18T08:27:43;6.90;99.90
8338;DHT22;4206;48.634;9.516;2022-11-18T08:30:09;6.90;99.90
8338;DHT22;4206;48.634;9.516;2022-11-18T08:32:35;6.90;99.90
8338;DHT22;4206;48.634;9.516;2022-11-18T08:35:01;6.90;99.90
8338;DHT22;4206;48.634;9.516;2022-11-18T08:37:26;6.90;99.90
8338;DHT22;4206;48.634;9.516;2022-11-18T08:39:52;7.00;99.90
8338;DHT22;4206;48.634;9.516;2022-11-18T08:42:17;6.90;99.90
8338;DHT22;4206;48.634;9.516;2022-11-18T08:44:47;7.00;99.90
8338;DHT22;4206;48.634;9.516;2022-11-18T08:47:13;7.10;99.90
8338;DHT22;4206;48.634;9.516;2022-11-18T08:49:38;7.10;99.90
8338;DHT22;4206;48.634;9.516;2022-11-18T08:52:04;7.10;99.90
8338;DHT22;4206;48.634;9.516;2022-11-18T08:54:30;7.10;99.90
8338;DHT22;4206;48.634;9.516;2022-11-18T08:56:56;7.20;99.90
8338;DHT22;4206;48.634;9.516;2022-11-18T08:59:21;7.10;99.90
8338;DHT22;4206;48.634;9.516;2022-11-18T09:01:47;7.10;99.90
8338;DHT22;4206;48.634;9.516;2022-11-18T09:04:13;7.10;99.90
8338;DHT22;4206;48.634;9.516;2022-11-18T09:06:39;7.10;99.90
8338;DHT22;4206;48.634;9.516;2022-11-18T09:09:05;7.10;99.90
8338;DHT22;4206;48.634;9.516;2022-11-18T09:11:31;7.20;99.90
8338;DHT22;4206;48.634;9.516;2022-11-18T09:13:58;7.20;99.90
8338;DHT22;4206;48.634;9.516;2022-11-18T09:16:25;7.20;99.90
8338;DHT22;4206;48.634;9.516;2022-11-18T09:18:52;7.20;99.90
8338;DHT22;4206;48.634;9.516;2022-11-18T09:21:18;7.20;99.90
8338;DHT22;4206;48.634;9.516;2022-11-18T09:23:47;7.20;99.90
8338;DHT22;4206;48.634;9.516;2022-11-18T09:26:16;7.20;99.90
8338;DHT22;4206;48.634;9.516;2022-11-18T09:28:42;7.30;99.90
8338;DHT22;4206;48.634;9.516;2022-11-18T09:31:10;7.30;99.90
8338;DHT22;4206;48.634;9.516;2022-11-18T09:33:37;7.30;99.90
8338;DHT22;4206;48.634;9.516;2022-11-18T09:36:03;7.40;99.90
8338;DHT22;4206;48.634;9.516;2022-11-18T09:38:30;7.30;99.90
8338;DHT22;4206;48.634;9.516;2022-11-18T09:49:27;7.40;99.90
8338;DHT22;4206;48.634;9.516;2022-11-18T09:51:55;7.40;99.90
8338;DHT22;4206;48.634;9.516;2022-11-18T09:54:25;7.50;99.90
8338;DHT22;4206;48.634;9.516;2022-11-18T09:56:52;7.40;99.90
8338;DHT22;4206;48.634;9.516;2022-11-18T09:59:22;7.20;99.90
8338;DHT22;4206;48.634;9.516;2022-11-18T10:01:50;7.30;99.90
8338;DHT22;4206;48.634;9.516;2022-11-18T10:04:19;7.30;99.90
8338;DHT22;4206;48.634;9.516;2022-11-18T10:06:45;7.30;99.90
8338;DHT22;4206;48.634;9.516;2022-11-18T10:12:07;7.30;99.90
8338;DHT22;4206;48.634;9.516;2022-11-18T10:25:48;7.30;99.90
8338;DHT22;4206;48.634;9.516;2022-11-18T10:30:42;7.40;99.90
8338;DHT22;4206;48.634;9.516;2022-11-18T10:33:24;7.50;99.90
8338;DHT22;4206;48.634;9.516;2022-11-18T10:35:51;7.70;99.90
8338;DHT22;4206;48.634;9.516;2022-11-18T10:38:32;7.70;99.90
8338;DHT22;4206;48.634;9.516;2022-11-18T10:41:01;7.90;99.90
8338;DHT22;4206;48.634;9.516;2022-11-18T10:43:48;7.90;99.90
8338;DHT22;4206;48.634;9.516;2022-11-18T10:46:31;8.00;99.90
8338;DHT22;4206;48.634;9.516;2022-11-18T10:49:12;8.00;99.90
8338;DHT22;4206;48.634;9.516;2022-11-18T10:51:43;8.00;99.90
8338;DHT22;4206;48.634;9.516;2022-11-18T10:54:17;8.00;99.90
8338;DHT22;4206;48.634;9.516;2022-11-18T10:56:46;8.00;99.90
8338;DHT22;4206;48.634;9.516;2022-11-18T10:59:30;8.10;99.90
8338;DHT22;4206;48.634;9.516;2022-11-18T11:04:27;8.10;99.90
8338;DHT22;4206;48.634;9.516;2022-11-18T11:06:53;8.20;99.90
8338;DHT22;4206;48.634;9.516;2022-11-18T11:20:09;8.50;99.90
8338;DHT22;4206;48.634;9.516;2022-11-18T11:22:38;8.60;99.90
8338;DHT22;4206;48.634;9.516;2022-11-18T11:25:14;8.50;99.90
8338;DHT22;4206;48.634;9.516;2022-11-18T11:27:47;8.50;99.90
8338;DHT22;4206;48.634;9.516;2022-11-18T11:30:20;8.60;99.90
8338;DHT22;4206;48.634;9.516;2022-11-18T11:35:28;8.60;99.90
8338;DHT22;4206;48.634;9.516;2022-11-18T11:37:57;8.50;99.90
8338;DHT22;4206;48.634;9.516;2022-11-18T11:43:02;8.70;99.90
8338;DHT22;4206;48.634;9.516;2022-11-18T11:45:36;8.30;99.90
8338;DHT22;4206;48.634;9.516;2022-11-18T11:48:25;8.40;99.90
8338;DHT22;4206;48.634;9.516;2022-11-18T11:50:57;8.40;99.90
8338;DHT22;4206;48.634;9.516;2022-11-18T11:58:55;8.50;99.90
8338;DHT22;4206;48.634;9.516;2022-11-18T12:04:13;8.40;99.90
8338;DHT22;4206;48.634;9.516;2022-11-18T12:06:46;8.40;99.90
8338;DHT22;4206;48.634;9.516;2022-11-18T12:09:25;8.30;99.90
8338;DHT22;4206;48.634;9.516;2022-11-18T12:12:17;8.20;99.90
8338;DHT22;4206;48.634;9.516;2022-11-18T12:18:18;8.20;99.90
8338;DHT22;4206;48.634;9.516;2022-11-18T12:20:47;8.40;99.90
8338;DHT22;4206;48.634;9.516;2022-11-18T12:23:21;8.30;99.90
8338;DHT22;4206;48.634;9.516;2022-11-18T12:33:43;8.30;99.90
8338;DHT22;4206;48.634;9.516;2022-11-18T12:36:16;8.40;99.90
8338;DHT22;4206;48.634;9.516;2022-11-18T12:38:48;8.30;99.90
8338;DHT22;4206;48.634;9.516;2022-11-18T12:44:23;8.20;99.90
8338;DHT22;4206;48.634;9.516;2022-11-18T12:46:50;8.20;99.90
8338;DHT22;4206;48.634;9.516;2022-11-18T12:51:58;8.30;99.90
8338;DHT22;4206;48.634;9.516;2022-11-18T12:54:43;8.20;99.90
8338;DHT22;4206;48.634;9.516;2022-11-18T12:57:26;8.30;99.90
8338;DHT22;4206;48.634;9.516;2022-11-18T12:59:53;8.20;99.90
8338;DHT22;4206;48.634;9.516;2022-11-18T13:05:05;8.10;99.90
8338;DHT22;4206;48.634;9.516;2022-11-18T13:07:37;8.00;99.90
8338;DHT22;4206;48.634;9.516;2022-11-18T13:10:22;7.90;99.90
8338;DHT22;4206;48.634;9.516;2022-11-18T13:12:50;7.90;99.90
8338;DHT22;4206;48.634;9.516;2022-11-18T13:15:17;7.80;99.90
8338;DHT22;4206;48.634;9.516;2022-11-18T13:18:12;7.70;99.90
8338;DHT22;4206;48.634;9.516;2022-11-18T13:20:41;7.70;99.90
8338;DHT22;4206;48.634;9.516;2022-11-18T13:26:03;7.80;99.90
8338;DHT22;4206;48.634;9.516;2022-11-18T13:31:16;7.70;99.90
8338;DHT22;4206;48.634;9.516;2022-11-18T13:33:44;7.70;99.90
8338;DHT22;4206;48.634;9.516;2022-11-18T13:36:21;7.70;99.90
8338;DHT22;4206;48.634;9.516;2022-11-18T13:39:04;7.70;99.90
8338;DHT22;4206;48.634;9.516;2022-11-18T13:41:32;7.70;99.90
8338;DHT22;4206;48.634;9.516;2022-11-18T13:44:15;7.70;99.90
8338;DHT22;4206;48.634;9.516;2022-11-18T13:46:44;7.70;99.90
8338;DHT22;4206;48.634;9.516;2022-11-18T13:49:15;7.80;99.90
8338;DHT22;4206;48.634;9.516;2022-11-18T13:51:42;7.80;99.90
8338;DHT22;4206;48.634;9.516;2022-11-18T13:54:21;7.90;99.90
8338;DHT22;4206;48.634;9.516;2022-11-18T13:56:47;8.00;99.90
8338;DHT22;4206;48.634;9.516;2022-11-18T13:59:17;8.00;99.90
8338;DHT22;4206;48.634;9.516;2022-11-18T14:01:44;8.00;99.90
8338;DHT22;4206;48.634;9.516;2022-11-18T14:04:19;8.00;99.90
8338;DHT22;4206;48.634;9.516;2022-11-18T14:06:45;8.00;99.90
8338;DHT22;4206;48.634;9.516;2022-11-18T14:09:27;8.00;99.90
8338;DHT22;4206;48.634;9.516;2022-11-18T14:12:04;8.10;99.90
8338;DHT22;4206;48.634;9.516;2022-11-18T14:14:37;8.00;99.90
8338;DHT22;4206;48.634;9.516;2022-11-18T14:17:20;7.90;99.90
8338;DHT22;4206;48.634;9.516;2022-11-18T14:19:48;7.90;99.90
8338;DHT22;4206;48.634;9.516;2022-11-18T14:22:16;7.80;99.90
8338;DHT22;4206;48.634;9.516;2022-11-18T14:24:43;7.80;99.90
8338;DHT22;4206;48.634;9.516;2022-11-18T14:27:34;7.80;99.90
8338;DHT22;4206;48.634;9.516;2022-11-18T14:30:22;7.90;99.90
8338;DHT22;4206;48.634;9.516;2022-11-18T14:35:31;7.80;99.90
8338;DHT22;4206;48.634;9.516;2022-11-18T14:37:57;7.90;99.90
8338;DHT22;4206;48.634;9.516;2022-11-18T14:40:23;8.00;99.90
8338;DHT22;4206;48.634;9.516;2022-11-18T14:42:48;8.00;99.90
8338;DHT22;4206;48.634;9.516;2022-11-18T14:45:14;7.80;99.90
8338;DHT22;4206;48.634;9.516;2022-11-18T14:47:40;7.90;99.90
8338;DHT22;4206;48.634;9.516;2022-11-18T14:50:14;7.90;99.90
8338;DHT22;4206;48.634;9.516;2022-11-18T14:52:39;7.90;99.90
8338;DHT22;4206;48.634;9.516;2022-11-18T14:55:05;7.80;99.90
8338;DHT22;4206;48.634;9.516;2022-11-18T14:57:31;7.80;99.90
8338;DHT22;4206;48.634;9.516;2022-11-18T14:59:57;7.80;99.90
8338;DHT22;4206;48.634;9.516;2022-11-18T15:02:23;7.70;99.90
8338;DHT22;4206;48.634;9.516;2022-11-18T15:04:49;7.60;99.90
8338;DHT22;4206;48.634;9.516;2022-11-18T15:07:17;7.60;99.90
8338;DHT22;4206;48.634;9.516;2022-11-18T15:09:42;7.60;99.90
8338;DHT22;4206;48.634;9.516;2022-11-18T15:12:08;7.50;99.90
8338;DHT22;4206;48.634;9.516;2022-11-18T15:14:34;7.40;99.90
8338;DHT22;4206;48.634;9.516;2022-11-18T15:17:01;7.40;99.90
8338;DHT22;4206;48.634;9.516;2022-11-18T15:19:27;7.40;99.90
8338;DHT22;4206;48.634;9.516;2022-11-18T15:21:54;7.30;99.90
8338;DHT22;4206;48.634;9.516;2022-11-18T15:24:20;7.40;99.90
8338;DHT22;4206;48.634;9.516;2022-11-18T15:26:46;7.30;99.90
8338;DHT22;4206;48.634;9.516;2022-11-18T15:29:16;7.30;99.90
8338;DHT22;4206;48.634;9.516;2022-11-18T15:31:42;7.30;99.90
8338;DHT22;4206;48.634;9.516;2022-11-18T15:34:08;7.30;99.90
8338;DHT22;4206;48.634;9.516;2022-11-18T15:36:34;7.30;99.90
8338;DHT22;4206;48.634;9.516;2022-11-18T15:38:59;7.20;99.90
8338;DHT22;4206;48.634;9.516;2022-11-18T15:41:27;7.20;99.90
8338;DHT22;4206;48.634;9.516;2022-11-18T15:43:55;7.20;99.90
8338;DHT22;4206;48.634;9.516;2022-11-18T15:46:23;7.20;99.90
8338;DHT22;4206;48.634;9.516;2022-11-18T15:48:52;7.20;99.90
8338;DHT22;4206;48.634;9.516;2022-11-18T15:51:18;7.20;99.90
8338;DHT22;4206;48.634;9.516;2022-11-18T15:53:44;7.10;99.90
8338;DHT22;4206;48.634;9.516;2022-11-18T15:56:19;7.00;99.90
8338;DHT22;4206;48.634;9.516;2022-11-18T16:01:26;7.10;99.90
8338;DHT22;4206;48.634;9.516;2022-11-18T16:03:52;7.20;99.90
8338;DHT22;4206;48.634;9.516;2022-11-18T16:06:18;7.20;99.90
8338;DHT22;4206;48.634;9.516;2022-11-18T16:08:44;7.10;99.90
8338;DHT22;4206;48.634;9.516;2022-11-18T16:11:12;7.20;99.90
8338;DHT22;4206;48.634;9.516;2022-11-18T16:13:57;7.10;99.90
8338;DHT22;4206;48.634;9.516;2022-11-18T16:16:23;7.20;99.90
8338;DHT22;4206;48.634;9.516;2022-11-18T16:19:01;7.20;99.90
8338;DHT22;4206;48.634;9.516;2022-11-18T16:21:28;7.10;99.90
8338;DHT22;4206;48.634;9.516;2022-11-18T16:23:55;7.20;99.90
8338;DHT22;4206;48.634;9.516;2022-11-18T16:26:23;7.20;99.90
8338;DHT22;4206;48.634;9.516;2022-11-18T16:28:48;7.20;99.90
8338;DHT22;4206;48.634;9.516;2022-11-18T16:31:14;7.10;99.90
8338;DHT22;4206;48.634;9.516;2022-11-18T16:33:55;7.20;99.90
8338;DHT22;4206;48.634;9.516;2022-11-18T16:36:28;7.10;99.90
8338;DHT22;4206;48.634;9.516;2022-11-18T16:38:53;7.10;99.90
8338;DHT22;4206;48.634;9.516;2022-11-18T16:41:19;7.20;99.90
8338;DHT22;4206;48.634;9.516;2022-11-18T16:44:03;7.10;99.90
8338;DHT22;4206;48.634;9.516;2022-11-18T16:46:30;7.10;99.90
8338;DHT22;4206;48.634;9.516;2022-11-18T16:48:56;7.00;99.90
8338;DHT22;4206;48.634;9.516;2022-11-18T16:51:24;7.10;99.90
8338;DHT22;4206;48.634;9.516;2022-11-18T16:53:52;7.00;99.90
8338;DHT22;4206;48.634;9.516;2022-11-18T16:56:21;7.00;99.90
8338;DHT22;4206;48.634;9.516;2022-11-18T16:58:47;7.00;99.90
8338;DHT22;4206;48.634;9.516;2022-11-18T17:01:14;7.00;99.90
8338;DHT22;4206;48.634;9.516;2022-11-18T17:03:40;7.00;99.90
8338;DHT22;4206;48.634;9.516;2022-11-18T17:06:06;7.10;99.90
8338;DHT22;4206;48.634;9.516;2022-11-18T17:08:33;7.00;99.90
8338;DHT22;4206;48.634;9.516;2022-11-18T17:11:07;7.00;99.90
8338;DHT22;4206;48.634;9.516;2022-11-18T17:13:34;6.90;99.90
8338;DHT22;4206;48.634;9.516;2022-11-18T17:16:05;7.00;99.90
8338;DHT22;4206;48.634;9.516;2022-11-18T17:18:31;7.00;99.90
8338;DHT22;4206;48.634;9.516;2022-11-18T17:21:02;6.60;99.90
8338;DHT22;4206;48.634;9.516;2022-11-18T17:23:27;6.90;99.90
8338;DHT22;4206;48.634;9.516;2022-11-18T17:25:53;6.90;99.90
8338;DHT22;4206;48.634;9.516;2022-11-18T17:28:19;6.90;99.90
8338;DHT22;4206;48.634;9.516;2022-11-18T17:30:44;6.90;99.90
8338;DHT22;4206;48.634;9.516;2022-11-18T17:33:10;6.90;99.90
8338;DHT22;4206;48.634;9.516;2022-11-18T17:35:35;6.80;99.90
8338;DHT22;4206;48.634;9.516;2022-11-18T17:38:01;6.90;99.90
8338;DHT22;4206;48.634;9.516;2022-11-18T17:40:27;6.80;99.90
8338;DHT22;4206;48.634;9.516;2022-11-18T17:42:52;6.80;99.90
8338;DHT22;4206;48.634;9.516;2022-11-18T17:45:18;6.80;99.90
8338;DHT22;4206;48.634;9.516;2022-11-18T17:47:44;6.90;99.90
8338;DHT22;4206;48.634;9.516;2022-11-18T17:50:09;6.80;99.90
8338;DHT22;4206;48.634;9.516;2022-11-18T17:52:35;6.80;99.90
8338;DHT22;4206;48.634;9.516;2022-11-18T17:55:01;6.80;99.90
8338;DHT22;4206;48.634;9.516;2022-11-18T17:57:27;6.70;99.90
8338;DHT22;4206;48.634;9.516;2022-11-18T17:59:52;6.70;99.90
8338;DHT22;4206;48.634;9.516;2022-11-18T18:02:18;6.80;99.90
8338;DHT22;4206;48.634;9.516;2022-11-18T18:04:46;6.80;99.90
8338;DHT22;4206;48.634;9.516;2022-11-18T18:07:11;6.80;99.90
8338;DHT22;4206;48.634;9.516;2022-11-18T18:09:37;6.80;99.90
8338;DHT22;4206;48.634;9.516;2022-11-18T18:12:03;6.80;99.90
8338;DHT22;4206;48.634;9.516;2022-11-18T18:14:50;6.70;99.90
8338;DHT22;4206;48.634;9.516;2022-11-18T18:17:15;6.90;99.90
8338;DHT22;4206;48.634;9.516;2022-11-18T18:19:41;6.80;99.90
8338;DHT22;4206;48.634;9.516;2022-11-18T18:22:07;6.80;99.90
8338;DHT22;4206;48.634;9.516;2022-11-18T18:24:32;6.80;99.90
8338;DHT22;4206;48.634;9.516;2022-11-18T18:26:58;6.80;99.90
8338;DHT22;4206;48.634;9.516;2022-11-18T18:29:25;6.70;99.90
8338;DHT22;4206;48.634;9.516;2022-11-18T18:31:50;6.80;99.90
8338;DHT22;4206;48.634;9.516;2022-11-18T18:34:16;6.80;99.90
8338;DHT22;4206;48.634;9.516;2022-11-18T18:36:42;6.80;99.90
8338;DHT22;4206;48.634;9.516;2022-11-18T18:39:08;6.80;99.90
8338;DHT22;4206;48.634;9.516;2022-11-18T18:41:35;6.70;99.90
8338;DHT22;4206;48.634;9.516;2022-11-18T18:44:02;6.80;99.90
8338;DHT22;4206;48.634;9.516;2022-11-18T18:46:28;6.80;99.90
8338;DHT22;4206;48.634;9.516;2022-11-18T18:48:57;6.80;99.90
8338;DHT22;4206;48.634;9.516;2022-11-18T18:51:24;6.80;99.90
8338;DHT22;4206;48.634;9.516;2022-11-18T18:53:51;6.80;99.90
8338;DHT22;4206;48.634;9.516;2022-11-18T18:56:16;6.80;99.90
8338;DHT22;4206;48.634;9.516;2022-11-18T18:58:42;7.00;99.90
8338;DHT22;4206;48.634;9.516;2022-11-18T19:01:11;6.90;99.90
8338;DHT22;4206;48.634;9.516;2022-11-18T19:03:37;6.90;99.90
8338;DHT22;4206;48.634;9.516;2022-11-18T19:06:15;6.80;99.90
8338;DHT22;4206;48.634;9.516;2022-11-18T19:08:43;6.90;99.90
8338;DHT22;4206;48.634;9.516;2022-11-18T19:11:09;6.90;99.90
8338;DHT22;4206;48.634;9.516;2022-11-18T19:14:00;6.90;99.90
8338;DHT22;4206;48.634;9.516;2022-11-18T19:16:26;6.90;99.90
8338;DHT22;4206;48.634;9.516;2022-11-18T19:18:52;7.00;99.90
8338;DHT22;4206;48.634;9.516;2022-11-18T19:21:17;7.00;99.90
8338;DHT22;4206;48.634;9.516;2022-11-18T19:23:43;7.00;99.90
8338;DHT22;4206;48.634;9.516;2022-11-18T19:26:09;7.10;99.90
8338;DHT22;4206;48.634;9.516;2022-11-18T19:28:34;7.10;99.90
8338;DHT22;4206;48.634;9.516;2022-11-18T19:31:00;7.10;99.90
8338;DHT22;4206;48.634;9.516;2022-11-18T19:33:25;7.00;99.90
8338;DHT22;4206;48.634;9.516;2022-11-18T19:35:51;7.10;99.90
8338;DHT22;4206;48.634;9.516;2022-11-18T19:38:17;7.00;99.90
8338;DHT22;4206;48.634;9.516;2022-11-18T19:40:42;7.00;99.90
8338;DHT22;4206;48.634;9.516;2022-11-18T19:43:08;7.00;99.90
8338;DHT22;4206;48.634;9.516;2022-11-18T19:45:37;6.80;99.90
8338;DHT22;4206;48.634;9.516;2022-11-18T19:48:02;7.00;99.90
8338;DHT22;4206;48.634;9.516;2022-11-18T19:50:28;6.90;99.90
8338;DHT22;4206;48.634;9.516;2022-11-18T19:52:55;6.80;99.90
8338;DHT22;4206;48.634;9.516;2022-11-18T19:55:21;6.90;99.90
8338;DHT22;4206;48.634;9.516;2022-11-18T19:57:46;6.80;99.90
8338;DHT22;4206;48.634;9.516;2022-11-18T20:00:12;6.90;99.90
8338;DHT22;4206;48.634;9.516;2022-11-18T20:02:38;6.90;99.90
8338;DHT22;4206;48.634;9.516;2022-11-18T20:05:05;7.90;99.90
8338;DHT22;4206;48.634;9.516;2022-11-18T20:07:46;7.00;99.90
8338;DHT22;4206;48.634;9.516;2022-11-18T20:10:12;6.90;99.90
8338;DHT22;4206;48.634;9.516;2022-11-18T20:12:37;6.80;99.90
8338;DHT22;4206;48.634;9.516;2022-11-18T20:15:03;6.80;99.90
8338;DHT22;4206;48.634;9.516;2022-11-18T20:17:29;6.90;99.90
8338;DHT22;4206;48.634;9.516;2022-11-18T20:19:55;6.80;99.90
8338;DHT22;4206;48.634;9.516;2022-11-18T20:22:20;6.80;99.90
8338;DHT22;4206;48.634;9.516;2022-11-18T20:24:46;6.80;99.90
8338;DHT22;4206;48.634;9.516;2022-11-18T20:27:12;6.80;99.90
8338;DHT22;4206;48.634;9.516;2022-11-18T20:29:40;6.70;99.90
8338;DHT22;4206;48.634;9.516;2022-11-18T20:32:06;6.80;99.90
8338;DHT22;4206;48.634;9.516;2022-11-18T20:34:31;6.80;99.90
8338;DHT22;4206;48.634;9.516;2022-11-18T20:36:59;6.80;99.90
8338;DHT22;4206;48.634;9.516;2022-11-18T20:39:25;6.80;99.90
8338;DHT22;4206;48.634;9.516;2022-11-18T20:41:54;6.80;99.90
8338;DHT22;4206;48.634;9.516;2022-11-18T20:44:35;6.80;99.90
8338;DHT22;4206;48.634;9.516;2022-11-18T20:47:00;6.90;99.90
8338;DHT22;4206;48.634;9.516;2022-11-18T20:49:26;6.80;99.90
8338;DHT22;4206;48.634;9.516;2022-11-18T20:51:51;6.90;99.90
8338;DHT22;4206;48.634;9.516;2022-11-18T20:54:17;6.90;99.90
8338;DHT22;4206;48.634;9.516;2022-11-18T20:56:43;6.80;99.90
8338;DHT22;4206;48.634;9.516;2022-11-18T20:59:08;6.90;99.90
8338;DHT22;4206;48.634;9.516;2022-11-18T21:01:34;6.80;99.90
8338;DHT22;4206;48.634;9.516;2022-11-18T21:04:01;6.80;99.90
8338;DHT22;4206;48.634;9.516;2022-11-18T21:06:29;6.80;99.90
8338;DHT22;4206;48.634;9.516;2022-11-18T21:08:57;6.80;99.90
8338;DHT22;4206;48.634;9.516;2022-11-18T21:11:24;6.80;99.90
8338;DHT22;4206;48.634;9.516;2022-11-18T21:13:49;6.70;99.90
8338;DHT22;4206;48.634;9.516;2022-11-18T21:16:30;6.70;99.90
8338;DHT22;4206;48.634;9.516;2022-11-18T21:18:56;6.70;99.90
8338;DHT22;4206;48.634;9.516;2022-11-18T21:21:22;6.70;99.90
8338;DHT22;4206;48.634;9.516;2022-11-18T21:24:03;6.70;99.90
8338;DHT22;4206;48.634;9.516;2022-11-18T21:26:30;6.70;99.90
8338;DHT22;4206;48.634;9.516;2022-11-18T21:28:58;6.70;99.90
8338;DHT22;4206;48.634;9.516;2022-11-18T21:31:25;6.70;99.90
8338;DHT22;4206;48.634;9.516;2022-11-18T21:33:52;6.50;99.90
8338;DHT22;4206;48.634;9.516;2022-11-18T21:36:19;6.80;99.90
8338;DHT22;4206;48.634;9.516;2022-11-18T21:38:45;6.80;99.90
8338;DHT22;4206;48.634;9.516;2022-11-18T21:41:11;6.70;99.90
8338;DHT22;4206;48.634;9.516;2022-11-18T21:43:38;6.80;99.90
8338;DHT22;4206;48.634;9.516;2022-11-18T21:46:06;6.80;99.90
8338;DHT22;4206;48.634;9.516;2022-11-18T21:48:32;6.70;99.90
8338;DHT22;4206;48.634;9.516;2022-11-18T21:50:59;6.70;99.90
8338;DHT22;4206;48.634;9.516;2022-11-18T21:53:25;6.70;99.90
8338;DHT22;4206;48.634;9.516;2022-11-18T21:55:50;6.70;99.90
8338;DHT22;4206;48.634;9.516;2022-11-18T21:58:16;6.70;99.90
8338;DHT22;4206;48.634;9.516;2022-11-18T22:00:42;6.70;99.90
8338;DHT22;4206;48.634;9.516;2022-11-18T22:03:08;6.60;99.90
8338;DHT22;4206;48.634;9.516;2022-11-18T22:05:34;6.60;99.90
8338;DHT22;4206;48.634;9.516;2022-11-18T22:08:00;6.60;99.90
8338;DHT22;4206;48.634;9.516;2022-11-18T22:10:26;6.60;99.90
8338;DHT22;4206;48.634;9.516;2022-11-18T22:12:52;6.60;99.90
8338;DHT22;4206;48.634;9.516;2022-11-18T22:15:18;6.60;99.90
8338;DHT22;4206;48.634;9.516;2022-11-18T22:17:44;6.50;99.90
8338;DHT22;4206;48.634;9.516;2022-11-18T22:20:10;6.60;99.90
8338;DHT22;4206;48.634;9.516;2022-11-18T22:22:37;6.50;99.90
8338;DHT22;4206;48.634;9.516;2022-11-18T22:25:03;6.60;99.90
8338;DHT22;4206;48.634;9.516;2022-11-18T22:27:29;6.50;99.90
8338;DHT22;4206;48.634;9.516;2022-11-18T22:29:55;6.50;99.90
8338;DHT22;4206;48.634;9.516;2022-11-18T22:32:20;6.50;99.90
8338;DHT22;4206;48.634;9.516;2022-11-18T22:34:46;6.40;99.90
8338;DHT22;4206;48.634;9.516;2022-11-18T22:37:12;6.50;99.90
8338;DHT22;4206;48.634;9.516;2022-11-18T22:39:37;6.50;99.90
8338;DHT22;4206;48.634;9.516;2022-11-18T22:42:04;6.50;99.90
8338;DHT22;4206;48.634;9.516;2022-11-18T22:44:45;6.60;99.90
8338;DHT22;4206;48.634;9.516;2022-11-18T22:47:11;6.40;99.90
8338;DHT22;4206;48.634;9.516;2022-11-18T22:49:36;6.40;99.90
8338;DHT22;4206;48.634;9.516;2022-11-18T22:52:02;6.40;99.90
8338;DHT22;4206;48.634;9.516;2022-11-18T22:54:28;6.30;99.90
8338;DHT22;4206;48.634;9.516;2022-11-18T22:56:54;6.40;99.90
8338;DHT22;4206;48.634;9.516;2022-11-18T22:59:20;6.50;99.90
8338;DHT22;4206;48.634;9.516;2022-11-18T23:01:45;6.40;99.90
8338;DHT22;4206;48.634;9.516;2022-11-18T23:04:11;6.40;99.90
8338;DHT22;4206;48.634;9.516;2022-11-18T23:06:37;6.40;99.90
8338;DHT22;4206;48.634;9.516;2022-11-18T23:09:02;6.40;99.90
8338;DHT22;4206;48.634;9.516;2022-11-18T23:11:29;6.40;99.90
8338;DHT22;4206;48.634;9.516;2022-11-18T23:14:10;6.30;99.90
8338;DHT22;4206;48.634;9.516;2022-11-18T23:16:39;6.40;99.90
8338;DHT22;4206;48.634;9.516;2022-11-18T23:19:09;6.40;99.90
8338;DHT22;4206;48.634;9.516;2022-11-18T23:21:35;6.40;99.90
8338;DHT22;4206;48.634;9.516;2022-11-18T23:24:01;6.30;99.90
8338;DHT22;4206;48.634;9.516;2022-11-18T23:26:27;6.40;99.90
8338;DHT22;4206;48.634;9.516;2022-11-18T23:28:54;6.40;99.90
8338;DHT22;4206;48.634;9.516;2022-11-18T23:31:22;6.30;99.90
8338;DHT22;4206;48.634;9.516;2022-11-18T23:33:48;6.30;99.90
8338;DHT22;4206;48.634;9.516;2022-11-18T23:36:16;6.30;99.90
8338;DHT22;4206;48.634;9.516;2022-11-18T23:38:42;6.30;99.90
8338;DHT22;4206;48.634;9.516;2022-11-18T23:41:10;6.20;99.90
8338;DHT22;4206;48.634;9.516;2022-11-18T23:43:36;6.20;99.90
8338;DHT22;4206;48.634;9.516;2022-11-18T23:46:02;6.30;99.90
8338;DHT22;4206;48.634;9.516;2022-11-18T23:48:32;6.20;99.90
8338;DHT22;4206;48.634;9.516;2022-11-18T23:51:01;6.10;99.90
8338;DHT22;4206;48.634;9.516;2022-11-18T23:53:28;6.00;99.90
8338;DHT22;4206;48.634;9.516;2022-11-18T23:55:55;6.30;99.90
8338;DHT22;4206;48.634;9.516;2022-11-18T23:58:22;6.30;99.90
